createdAt,value
2023-02-19T00:02:19.503Z,99.90
2023-02-19T00:04:49.084Z,99.90
2023-02-19T00:07:17.185Z,99.90
2023-02-19T00:09:45.282Z,99.90
2023-02-19T00:12:13.842Z,99.90
2023-02-19T00:14:41.938Z,99.90
2023-02-19T00:17:10.087Z,99.90
2023-02-19T00:19:38.109Z,99.90
2023-02-19T00:22:07.531Z,99.90
2023-02-19T00:24:37.102Z,99.90
2023-02-19T00:27:05.272Z,99.90
2023-02-19T00:29:33.501Z,99.90
2023-02-19T00:32:05.046Z,99.90
2023-02-19T00:34:33.242Z,99.90
2023-02-19T00:37:01.439Z,99.90
2023-02-19T00:39:30.987Z,99.90
2023-02-19T00:42:00.648Z,99.90
2023-02-19T00:44:28.652Z,99.90
2023-02-19T00:46:56.751Z,99.90
2023-02-19T00:49:25.176Z,99.90
2023-02-19T00:51:54.390Z,99.90
2023-02-19T00:54:24.086Z,99.90
2023-02-19T00:56:53.449Z,99.90
2023-02-19T00:59:21.497Z,99.90
2023-02-19T01:01:49.747Z,99.90
2023-02-19T01:04:18.026Z,99.90
2023-02-19T01:06:46.349Z,99.90
2023-02-19T01:09:14.274Z,99.90
2023-02-19T01:11:42.514Z,99.90
2023-02-19T01:14:12.410Z,99.90
2023-02-19T01:16:40.441Z,99.90
2023-02-19T01:19:08.833Z,99.90
2023-02-19T01:21:36.924Z,99.90
2023-02-19T01:24:05.279Z,99.90
2023-02-19T01:26:34.852Z,99.90
2023-02-19T01:29:03.603Z,99.90
2023-02-19T01:31:33.352Z,99.90
2023-02-19T01:34:04.434Z,99.90
2023-02-19T01:36:35.031Z,99.90
2023-02-19T01:39:05.140Z,99.90
2023-02-19T01:41:37.260Z,99.90
2023-02-19T01:44:08.859Z,99.90
2023-02-19T01:46:40.016Z,99.90
2023-02-19T01:49:14.175Z,99.90
2023-02-19T01:51:50.201Z,99.90
2023-02-19T01:54:23.513Z,99.90
2023-02-19T01:56:52.993Z,99.90
2023-02-19T01:59:21.377Z,99.90
2023-02-19T02:01:51.720Z,99.90
2023-02-19T02:04:20.403Z,99.90
2023-02-19T02:06:52.552Z,99.90
2023-02-19T02:09:40.848Z,99.90
2023-02-19T02:12:09.494Z,99.90
2023-02-19T02:14:41.291Z,99.90
2023-02-19T02:17:21.628Z,99.90
2023-02-19T02:20:19.918Z,99.90
2023-02-19T02:22:56.699Z,99.90
2023-02-19T02:25:59.201Z,99.90
2023-02-19T02:28:59.288Z,99.90
2023-02-19T02:31:36.988Z,99.90
2023-02-19T02:34:13.402Z,99.90
2023-02-19T02:36:46.033Z,99.90
2023-02-19T02:39:20.444Z,99.90
2023-02-19T02:42:09.912Z,99.90
2023-02-19T02:44:38.850Z,99.90
2023-02-19T02:47:31.661Z,99.90
2023-02-19T02:50:07.891Z,99.90
2023-02-19T02:52:59.861Z,99.90
2023-02-19T02:55:34.772Z,99.90
2023-02-19T02:58:04.005Z,99.90
2023-02-19T03:00:58.900Z,99.90
2023-02-19T03:03:30.786Z,99.90
2023-02-19T03:06:08.118Z,99.90
2023-02-19T03:08:42.704Z,99.90
2023-02-19T03:11:30.627Z,99.90
2023-02-19T03:14:23.727Z,99.90
2023-02-19T03:17:14.968Z,99.90
2023-02-19T03:19:53.911Z,99.90
2023-02-19T03:22:30.489Z,99.90
2023-02-19T03:25:26.189Z,99.90
2023-02-19T03:27:58.729Z,99.90
2023-02-19T03:30:35.419Z,99.90
2023-02-19T03:33:10.924Z,99.90
2023-02-19T03:35:47.474Z,99.90
2023-02-19T03:38:22.606Z,99.90
2023-02-19T03:41:01.343Z,99.90
2023-02-19T03:43:42.967Z,99.90
2023-02-19T03:46:16.743Z,99.90
2023-02-19T03:48:57.816Z,99.90
2023-02-19T03:51:39.102Z,99.90
2023-02-19T03:54:18.880Z,99.90
2023-02-19T03:56:55.213Z,99.90
2023-02-19T03:59:33.554Z,99.90
2023-02-19T04:02:08.577Z,99.90
2023-02-19T04:04:42.375Z,99.90
2023-02-19T04:07:12.521Z,99.90
2023-02-19T04:09:48.345Z,99.90
2023-02-19T04:12:18.829Z,99.90
2023-02-19T04:14:54.934Z,99.90
2023-02-19T04:17:30.343Z,99.90
2023-02-19T04:20:03.534Z,99.90
2023-02-19T04:22:33.224Z,99.90
2023-02-19T04:25:01.814Z,99.90
2023-02-19T04:27:30.002Z,99.90
2023-02-19T04:29:58.160Z,99.90
2023-02-19T04:32:26.181Z,99.90
2023-02-19T04:34:54.465Z,99.90
2023-02-19T04:37:22.610Z,99.90
2023-02-19T04:39:52.085Z,99.90
2023-02-19T04:42:20.262Z,99.90
2023-02-19T04:44:48.383Z,99.90
2023-02-19T04:47:17.730Z,99.90
2023-02-19T04:49:46.272Z,99.90
2023-02-19T04:52:14.542Z,99.90
2023-02-19T04:54:42.623Z,99.90
2023-02-19T04:57:12.306Z,99.90
2023-02-19T04:59:40.529Z,99.90
2023-02-19T05:02:08.644Z,99.90
2023-02-19T05:04:36.802Z,99.90
2023-02-19T05:07:05.227Z,99.90
2023-02-19T05:09:33.344Z,99.90
2023-02-19T05:12:01.421Z,99.90
2023-02-19T05:14:30.896Z,99.90
2023-02-19T05:16:59.038Z,99.90
2023-02-19T05:19:27.094Z,99.90
2023-02-19T05:21:55.446Z,99.90
2023-02-19T05:24:24.346Z,99.90
2023-02-19T05:26:52.465Z,99.90
2023-02-19T05:29:20.592Z,99.90
2023-02-19T05:31:50.186Z,99.90
2023-02-19T05:34:18.274Z,99.90
2023-02-19T05:36:46.331Z,99.90
2023-02-19T05:39:14.526Z,99.90
2023-02-19T05:41:42.623Z,99.90
2023-02-19T05:44:11.658Z,99.90
2023-02-19T05:46:39.733Z,99.90
2023-02-19T05:49:09.324Z,99.90
2023-02-19T05:51:37.493Z,99.90
2023-02-19T05:54:05.923Z,99.90
2023-02-19T05:56:36.754Z,99.90
2023-02-19T05:59:08.329Z,99.90
2023-02-19T06:01:37.671Z,99.90
2023-02-19T06:04:06.206Z,99.90
2023-02-19T06:06:35.758Z,99.90
2023-02-19T06:09:04.787Z,99.90
2023-02-19T06:11:33.222Z,99.90
2023-02-19T06:14:01.314Z,99.90
2023-02-19T06:16:29.792Z,99.90
2023-02-19T06:18:57.895Z,99.90
2023-02-19T06:21:26.202Z,99.90
2023-02-19T06:23:55.729Z,99.90
2023-02-19T06:26:25.901Z,99.90
2023-02-19T06:28:55.374Z,99.90
2023-02-19T06:31:24.208Z,99.90
2023-02-19T06:33:52.387Z,99.90
2023-02-19T06:36:22.948Z,99.90
2023-02-19T06:38:52.226Z,99.90
2023-02-19T06:41:21.713Z,99.90
2023-02-19T06:43:49.899Z,99.90
2023-02-19T06:46:18.156Z,99.90
2023-02-19T06:48:47.170Z,99.90
2023-02-19T06:51:18.771Z,99.90
2023-02-19T06:53:47.259Z,99.90
2023-02-19T06:56:27.412Z,99.90
2023-02-19T06:59:00.616Z,99.90
2023-02-19T07:01:30.016Z,99.90
2023-02-19T07:03:58.578Z,99.90
2023-02-19T07:06:28.656Z,99.90
2023-02-19T07:08:58.996Z,99.90
2023-02-19T07:11:32.318Z,99.90
2023-02-19T07:14:03.527Z,99.90
2023-02-19T07:16:32.122Z,99.90
2023-02-19T07:19:01.773Z,99.90
2023-02-19T07:21:31.415Z,99.90
2023-02-19T07:23:59.852Z,99.90
2023-02-19T07:26:29.329Z,99.90
2023-02-19T07:28:57.408Z,99.90
2023-02-19T07:31:26.202Z,99.90
2023-02-19T07:33:54.528Z,99.90
2023-02-19T07:36:25.308Z,99.90
2023-02-19T07:38:57.604Z,99.90
2023-02-19T07:41:26.988Z,99.90
2023-02-19T07:43:56.396Z,99.90
2023-02-19T07:46:24.886Z,99.90
2023-02-19T07:48:53.035Z,99.90
2023-02-19T07:51:21.956Z,99.90
2023-02-19T07:53:51.570Z,99.90
2023-02-19T07:56:21.557Z,99.90
2023-02-19T07:58:52.159Z,99.90
2023-02-19T08:01:45.134Z,99.90
2023-02-19T08:04:14.306Z,99.90
2023-02-19T08:06:43.736Z,99.90
2023-02-19T08:09:12.259Z,99.90
2023-02-19T08:11:57.982Z,99.90
2023-02-19T08:14:27.134Z,99.90
2023-02-19T08:16:57.158Z,99.90
2023-02-19T08:19:25.691Z,99.90
2023-02-19T08:21:54.378Z,99.90
2023-02-19T08:24:22.585Z,99.90
2023-02-19T08:26:50.923Z,99.90
2023-02-19T08:29:19.341Z,99.90
2023-02-19T08:31:47.660Z,99.90
2023-02-19T08:34:17.123Z,99.90
2023-02-19T08:36:45.457Z,99.90
2023-02-19T08:39:13.718Z,99.90
2023-02-19T08:41:41.815Z,99.90
2023-02-19T08:44:09.842Z,99.90
2023-02-19T08:46:37.857Z,99.90
2023-02-19T08:49:05.942Z,99.90
2023-02-19T08:51:35.417Z,99.90
2023-02-19T08:54:04.945Z,99.90
2023-02-19T08:56:33.041Z,99.90
2023-02-19T08:59:01.103Z,99.90
2023-02-19T09:01:29.239Z,99.90
2023-02-19T09:03:57.486Z,99.90
2023-02-19T09:06:25.619Z,99.90
2023-02-19T09:08:55.216Z,99.90
2023-02-19T09:11:23.335Z,99.90
2023-02-19T09:13:51.403Z,99.90
2023-02-19T09:16:19.406Z,99.90
2023-02-19T09:18:47.552Z,99.90
2023-02-19T09:21:15.701Z,99.90
2023-02-19T09:23:43.749Z,99.90
2023-02-19T09:26:14.042Z,99.90
2023-02-19T09:28:43.072Z,99.90
2023-02-19T09:31:14.407Z,99.90
2023-02-19T09:33:47.305Z,99.90
2023-02-19T09:36:17.275Z,99.90
2023-02-19T09:38:45.889Z,99.90
2023-02-19T09:41:25.804Z,99.90
2023-02-19T09:43:54.071Z,99.90
2023-02-19T09:46:32.843Z,99.90
2023-02-19T09:49:08.063Z,99.90
2023-02-19T09:51:41.164Z,99.90
2023-02-19T09:54:21.482Z,99.90
2023-02-19T09:56:51.957Z,98.20
2023-02-19T09:59:26.815Z,93.80
2023-02-19T10:02:03.868Z,93.60
2023-02-19T10:04:31.780Z,92.80
2023-02-19T10:07:03.740Z,87.80
2023-02-19T10:09:32.615Z,88.60
2023-02-19T10:12:02.568Z,84.40
2023-02-19T10:14:37.783Z,86.40
2023-02-19T10:17:08.235Z,86.00
2023-02-19T10:19:37.835Z,82.10
2023-02-19T10:22:06.694Z,86.00
2023-02-19T10:24:35.904Z,81.00
2023-02-19T10:27:13.217Z,81.40
2023-02-19T10:29:41.495Z,69.10
2023-02-19T10:32:23.831Z,66.60
2023-02-19T10:35:13.154Z,69.60
2023-02-19T10:37:47.355Z,69.90
2023-02-19T10:40:22.098Z,64.60
2023-02-19T10:42:55.380Z,65.30
2023-02-19T10:45:30.534Z,69.40
2023-02-19T10:47:59.142Z,66.00
2023-02-19T10:50:32.798Z,67.40
2023-02-19T10:53:02.157Z,67.60
2023-02-19T10:55:37.807Z,67.70
2023-02-19T10:58:26.939Z,66.50
2023-02-19T11:01:19.610Z,65.50
2023-02-19T11:03:51.561Z,65.20
2023-02-19T11:06:22.750Z,66.70
2023-02-19T11:08:55.841Z,60.70
2023-02-19T11:11:35.138Z,60.50
2023-02-19T11:14:16.430Z,63.70
2023-02-19T11:16:48.021Z,66.60
2023-02-19T11:19:37.869Z,64.20
2023-02-19T11:22:29.508Z,65.40
2023-02-19T11:25:03.671Z,63.30
2023-02-19T11:27:33.625Z,62.40
2023-02-19T11:30:36.264Z,62.60
2023-02-19T11:33:25.299Z,60.10
2023-02-19T11:36:00.654Z,61.40
2023-02-19T11:38:29.380Z,57.30
2023-02-19T11:41:12.527Z,52.50
2023-02-19T11:44:02.371Z,52.70
2023-02-19T11:46:43.765Z,52.70
2023-02-19T11:49:34.399Z,56.20
2023-02-19T11:52:23.396Z,55.40
2023-02-19T11:54:58.287Z,47.90
2023-02-19T11:57:43.638Z,44.80
2023-02-19T12:00:27.242Z,44.60
2023-02-19T12:03:51.023Z,50.00
2023-02-19T12:06:35.827Z,47.50
2023-02-19T12:09:29.087Z,46.10
2023-02-19T12:12:22.402Z,46.30
2023-02-19T12:15:27.265Z,48.80
2023-02-19T12:18:40.872Z,47.80
2023-02-19T12:21:29.828Z,49.30
2023-02-19T12:24:48.648Z,53.30
2023-02-19T12:27:31.238Z,52.80
2023-02-19T12:30:27.248Z,49.60
2023-02-19T12:33:36.118Z,48.10
2023-02-19T12:36:22.633Z,50.40
2023-02-19T12:39:02.403Z,50.80
2023-02-19T12:41:43.706Z,50.50
2023-02-19T12:44:19.385Z,50.80
2023-02-19T12:46:55.171Z,47.20
2023-02-19T12:49:32.780Z,46.90
2023-02-19T12:52:10.541Z,47.10
2023-02-19T12:54:45.119Z,40.80
2023-02-19T12:57:18.849Z,45.20
2023-02-19T12:59:55.281Z,47.60
2023-02-19T13:02:32.459Z,48.20
2023-02-19T13:05:14.377Z,46.50
2023-02-19T13:07:55.188Z,44.80
2023-02-19T13:10:33.406Z,47.40
2023-02-19T13:13:08.777Z,49.20
2023-02-19T13:15:42.849Z,50.70
2023-02-19T13:18:20.413Z,51.20
2023-02-19T13:20:51.953Z,52.40
2023-02-19T13:23:46.616Z,53.70
2023-02-19T13:26:46.210Z,50.90
2023-02-19T13:29:34.307Z,57.00
2023-02-19T13:32:30.803Z,53.30
2023-02-19T13:35:25.089Z,52.20
2023-02-19T13:37:55.597Z,51.10
2023-02-19T13:40:34.871Z,50.00
2023-02-19T13:43:06.555Z,48.80
2023-02-19T13:45:46.851Z,52.80
2023-02-19T13:48:27.763Z,49.00
2023-02-19T13:51:40.194Z,50.70
2023-02-19T13:54:24.587Z,50.20
2023-02-19T13:57:28.924Z,53.90
2023-02-19T13:59:58.874Z,55.90
2023-02-19T14:02:33.887Z,59.10
2023-02-19T14:05:07.896Z,62.60
2023-02-19T14:08:03.954Z,62.00
2023-02-19T14:11:03.222Z,73.80
2023-02-19T14:14:24.593Z,72.40
2023-02-19T14:17:07.578Z,77.30
2023-02-19T14:19:53.870Z,78.20
2023-02-19T14:23:16.666Z,72.50
2023-02-19T14:25:53.319Z,68.50
2023-02-19T14:28:36.096Z,70.40
2023-02-19T14:31:19.027Z,65.00
2023-02-19T14:33:51.434Z,63.10
2023-02-19T14:36:44.125Z,64.80
2023-02-19T14:39:18.987Z,67.90
2023-02-19T14:41:51.333Z,69.40
2023-02-19T14:44:25.921Z,70.80
2023-02-19T14:47:01.769Z,71.00
2023-02-19T14:49:42.476Z,69.60
2023-02-19T14:52:20.315Z,67.70
2023-02-19T14:54:55.063Z,69.60
2023-02-19T14:57:29.829Z,73.60
2023-02-19T15:00:01.389Z,75.90
2023-02-19T15:02:33.361Z,73.00
2023-02-19T15:05:01.497Z,73.50
2023-02-19T15:07:34.310Z,76.30
2023-02-19T15:10:06.018Z,79.60
2023-02-19T15:12:42.331Z,79.30
2023-02-19T15:15:18.369Z,78.10
2023-02-19T15:17:48.111Z,78.20
2023-02-19T15:20:21.758Z,74.40
2023-02-19T15:22:50.842Z,73.70
2023-02-19T15:25:23.639Z,69.90
2023-02-19T15:27:52.137Z,66.70
2023-02-19T15:30:24.953Z,69.60
2023-02-19T15:32:57.026Z,67.30
2023-02-19T15:35:27.431Z,68.30
2023-02-19T15:37:56.773Z,69.80
2023-02-19T15:40:32.381Z,72.40
2023-02-19T15:43:02.060Z,69.10
2023-02-19T15:45:38.295Z,69.50
2023-02-19T15:48:14.941Z,74.60
2023-02-19T15:50:48.052Z,72.60
2023-02-19T15:53:20.616Z,72.30
2023-02-19T15:56:00.480Z,75.30
2023-02-19T15:58:37.521Z,75.80
2023-02-19T16:01:12.754Z,79.30
2023-02-19T16:03:43.158Z,81.60
2023-02-19T16:06:15.177Z,81.60
2023-02-19T16:08:45.480Z,85.60
2023-02-19T16:11:36.337Z,85.40
2023-02-19T16:14:30.975Z,90.60
2023-02-19T16:17:12.699Z,85.10
2023-02-19T16:19:52.855Z,87.90
2023-02-19T16:22:24.298Z,85.90
2023-02-19T16:24:56.496Z,90.70
2023-02-19T16:27:34.326Z,91.10
2023-02-19T16:30:09.196Z,91.20
2023-02-19T16:32:37.365Z,91.30
2023-02-19T16:35:36.163Z,93.30
2023-02-19T16:38:06.229Z,95.00
2023-02-19T16:41:07.961Z,96.60
2023-02-19T16:43:44.106Z,97.60
2023-02-19T16:46:14.171Z,97.60
2023-02-19T16:48:42.537Z,95.90
2023-02-19T16:51:27.450Z,94.80
2023-02-19T16:53:55.502Z,96.50
2023-02-19T16:56:26.320Z,97.20
2023-02-19T16:58:54.360Z,99.10
2023-02-19T17:01:22.445Z,99.90
2023-02-19T17:03:52.401Z,99.90
2023-02-19T17:06:21.812Z,99.90
2023-02-19T17:08:49.918Z,99.90
2023-02-19T17:11:19.561Z,99.90
2023-02-19T17:13:48.703Z,99.90
2023-02-19T17:16:20.776Z,99.90
2023-02-19T17:18:49.412Z,99.30
2023-02-19T17:21:23.479Z,99.20
2023-02-19T17:23:52.378Z,99.90
2023-02-19T17:26:23.724Z,99.90
2023-02-19T17:28:52.405Z,99.90
2023-02-19T17:31:20.892Z,99.90
2023-02-19T17:33:49.893Z,99.90
2023-02-19T17:36:21.009Z,99.90
2023-02-19T17:38:50.612Z,99.90
2023-02-19T17:41:18.659Z,99.90
2023-02-19T17:43:47.482Z,99.90
2023-02-19T17:46:17.325Z,99.90
2023-02-19T17:48:45.581Z,99.90
2023-02-19T17:51:14.466Z,99.90
2023-02-19T17:53:43.065Z,99.90
2023-02-19T17:56:17.883Z,99.90
2023-02-19T17:58:46.082Z,99.90
2023-02-19T18:01:15.257Z,99.90
2023-02-19T18:03:43.882Z,99.90
2023-02-19T18:06:11.943Z,99.90
2023-02-19T18:08:42.033Z,99.90
2023-02-19T18:11:10.443Z,99.90
2023-02-19T18:13:40.554Z,99.90
2023-02-19T18:16:09.873Z,99.90
2023-02-19T18:18:38.089Z,99.90
2023-02-19T18:21:09.748Z,99.90
2023-02-19T18:23:38.313Z,99.90
2023-02-19T18:26:10.225Z,99.90
2023-02-19T18:28:39.953Z,99.90
2023-02-19T18:31:08.878Z,99.90
2023-02-19T18:33:36.928Z,99.90
2023-02-19T18:36:10.828Z,99.90
2023-02-19T18:38:39.326Z,99.90
2023-02-19T18:41:07.499Z,99.90
2023-02-19T18:43:35.482Z,99.90
2023-02-19T18:46:08.641Z,99.90
2023-02-19T18:48:36.756Z,99.90
2023-02-19T18:51:05.599Z,99.90
2023-02-19T18:53:33.589Z,99.90
2023-02-19T18:56:02.023Z,99.90
2023-02-19T18:58:30.209Z,99.90
2023-02-19T19:01:01.209Z,99.90
2023-02-19T19:03:32.353Z,99.90
2023-02-19T19:06:00.575Z,99.90
2023-02-19T19:08:30.573Z,99.90
2023-02-19T19:10:58.782Z,99.90
2023-02-19T19:13:26.847Z,99.90
2023-02-19T19:15:54.920Z,99.90
2023-02-19T19:18:24.978Z,99.90
2023-02-19T19:20:56.631Z,99.90
2023-02-19T19:23:24.945Z,99.90
2023-02-19T19:25:54.543Z,99.90
2023-02-19T19:28:22.783Z,99.90
2023-02-19T19:30:51.007Z,99.90
2023-02-19T19:33:19.105Z,99.90
2023-02-19T19:35:47.152Z,99.90
2023-02-19T19:38:17.075Z,99.90
2023-02-19T19:40:45.288Z,99.90
2023-02-19T19:43:13.853Z,99.90
2023-02-19T19:45:42.129Z,99.90
2023-02-19T19:48:10.342Z,99.90
2023-02-19T19:50:38.562Z,99.90
2023-02-19T19:53:06.869Z,99.90
2023-02-19T19:55:36.576Z,99.90
2023-02-19T19:58:06.098Z,99.90
2023-02-19T20:00:36.104Z,99.90
2023-02-19T20:03:05.554Z,99.90
2023-02-19T20:05:33.945Z,99.90
2023-02-19T20:08:02.144Z,99.90
2023-02-19T20:10:30.276Z,99.90
2023-02-19T20:13:00.265Z,99.90
2023-02-19T20:15:28.417Z,99.90
2023-02-19T20:17:56.822Z,99.90
2023-02-19T20:20:25.394Z,99.90
2023-02-19T20:22:55.590Z,99.90
2023-02-19T20:25:25.590Z,99.90
2023-02-19T20:27:54.955Z,99.90
2023-02-19T20:30:26.145Z,99.90
2023-02-19T20:32:54.527Z,99.90
2023-02-19T20:35:26.473Z,99.90
2023-02-19T20:37:55.685Z,99.90
2023-02-19T20:40:27.439Z,99.90
2023-02-19T20:42:55.699Z,99.90
2023-02-19T20:45:26.456Z,99.90
2023-02-19T20:47:54.884Z,99.90
2023-02-19T20:50:23.544Z,99.90
2023-02-19T20:52:51.887Z,99.90
2023-02-19T20:55:20.158Z,99.90
2023-02-19T20:57:48.396Z,99.90
2023-02-19T21:00:17.647Z,99.90
2023-02-19T21:02:47.499Z,99.90
2023-02-19T21:05:17.116Z,99.90
2023-02-19T21:07:45.364Z,99.90
2023-02-19T21:10:14.188Z,99.90
2023-02-19T21:12:43.310Z,99.90
2023-02-19T21:15:11.489Z,99.90
2023-02-19T21:17:39.711Z,99.90
2023-02-19T21:20:11.346Z,99.90
2023-02-19T21:22:40.560Z,99.90
2023-02-19T21:25:09.003Z,99.90
2023-02-19T21:27:37.858Z,99.90
2023-02-19T21:30:07.676Z,99.90
2023-02-19T21:32:35.743Z,99.90
2023-02-19T21:35:04.237Z,99.90
2023-02-19T21:37:34.099Z,99.90
2023-02-19T21:40:02.494Z,99.90
2023-02-19T21:42:30.901Z,99.90
2023-02-19T21:44:59.420Z,99.90
2023-02-19T21:47:29.089Z,99.90
2023-02-19T21:49:57.341Z,99.90
2023-02-19T21:52:27.024Z,99.90
2023-02-19T21:54:56.867Z,99.90
2023-02-19T21:57:25.310Z,99.90
2023-02-19T21:59:54.479Z,99.90
2023-02-19T22:02:22.784Z,99.90
2023-02-19T22:04:54.936Z,99.90
2023-02-19T22:07:23.787Z,99.90
2023-02-19T22:09:53.567Z,99.90
2023-02-19T22:12:23.472Z,99.90
2023-02-19T22:14:52.821Z,99.90
2023-02-19T22:17:21.339Z,99.90
2023-02-19T22:19:49.723Z,99.90
2023-02-19T22:22:18.185Z,99.90
2023-02-19T22:24:46.672Z,99.90
2023-02-19T22:27:15.178Z,99.90
2023-02-19T22:29:45.249Z,99.90
2023-02-19T22:32:13.763Z,99.90
2023-02-19T22:34:42.685Z,99.90
2023-02-19T22:37:11.694Z,99.90
2023-02-19T22:39:40.241Z,99.90
2023-02-19T22:42:08.642Z,99.90
2023-02-19T22:44:36.988Z,99.90
2023-02-19T22:47:08.404Z,99.90
2023-02-19T22:49:40.007Z,99.90
2023-02-19T22:52:10.998Z,99.90
2023-02-19T22:54:39.659Z,99.90
2023-02-19T22:57:07.923Z,99.90
2023-02-19T22:59:36.217Z,99.90
2023-02-19T23:02:05.954Z,99.90
2023-02-19T23:04:34.369Z,99.90
2023-02-19T23:07:02.619Z,99.90
2023-02-19T23:09:31.048Z,99.90
2023-02-19T23:12:04.794Z,99.90
2023-02-19T23:14:33.326Z,99.90
2023-02-19T23:17:02.020Z,99.90
2023-02-19T23:19:31.821Z,99.90
2023-02-19T23:22:00.307Z,99.90
2023-02-19T23:24:29.212Z,99.90
2023-02-19T23:26:59.628Z,99.90
2023-02-19T23:29:30.749Z,99.90
2023-02-19T23:32:00.256Z,99.90
2023-02-19T23:34:28.365Z,99.90
2023-02-19T23:36:59.540Z,99.90
2023-02-19T23:39:27.639Z,99.90
2023-02-19T23:41:58.462Z,99.90
2023-02-19T23:44:27.469Z,99.90
2023-02-19T23:46:55.711Z,99.90
2023-02-19T23:49:24.237Z,99.90
2023-02-19T23:51:52.335Z,99.90
2023-02-19T23:54:21.854Z,99.90
2023-02-19T23:56:50.019Z,99.90
2023-02-19T23:59:18.232Z,99.90
